Accueil
METAR-TAF:

METAR-TAF

Aéroports :

Aéroport régional Les Éplatures

La Chaux-de-Fonds, Suisse

latitude: 47-05-03N, longitude: 006-47-37E, altitude: 1027 m

Observation

Le bulletin a été fait il y a 16 minutes, à 15:20 UTC
Vent 7 kt de nord-est, variant entre nord/nord-ouest et est/sud-est
Température 21°C
Humidité 35%
Pression 1017 hPa
Visibilité 10 km ou plus
pas de nuages en-dessous de 1500 mètres et pas de cumulonimbus.

METAR: LSGC 021520Z 05007KT 340V110 CAVOK 21/05 Q1017

Heure: 17:36 (15:36 UTC)

Prévision

Le bulletin a été fait il y a 1 heure et 11 minutes, à 14:25 UTC
Prévision valable du 02 à 15 UTC au 02 à 24 UTC
Vent 7 kt de nord-est
Visibilité 10 km ou plus
Quelques nuages à une hauteur de 3500 ft

TAF: LSGC 021425Z 0215/0224 04007KT 9999 FEW035

Observations et prévisions météorologiques de plus de 4000 aéroports (messages METAR et TAF).

Les stations disponibles sont représentées par des disques jaunes et rouges sur la carte.

Passer la souris dessus pour voir le nom de la station.

Cliquer dessus pour voir les observations et prévisions météorologiques.

Pour changer de carte: cliquez sur les boutons verts avec une croix noire pour zoomer, sur le bouton vert avec un tiret pour effectuer un zoom arrière, ou sur les flèches vertes pour les cartes adjacentes.


METAR-TAF: